Time;durP1;ratioP1;P1;durP2;ratioP2;P2;SDS_P1;SDS_P2;PMS_P1;PMS_P2;Temp;Humidity;BMP_temperature;BMP_pressure;BME280_temperature;BME280_humidity;BME280_pressure;Samples;Min_cycle;Max_cycle;Signal;HPM_P1;HPM_P2
2022/05/10 00:02:27;;;;;;;;;;;;;;;20.32;38.55;101455.61;104973;1299;72794;-84
2022/05/10 00:05:04;;;;;;;;;;;;;;;20.32;38.60;101458.09;105253;1300;75392;-82
2022/05/10 00:07:50;;;;;;;;;;;;;;;20.32;38.71;101453.81;105320;1298;61982;-84
2022/05/10 00:10:34;;;;;;;;;;;;;;;20.32;38.67;101453.99;105374;1299;62168;-84
2022/05/10 00:13:06;;;;;;;;;;;;;;;20.32;38.72;101454.00;105269;1299;72252;-83
2022/05/10 00:15:47;;;;;;;;;;;;;;;20.32;38.81;101452.75;105361;1298;76652;-83
2022/05/10 00:18:32;;;;;;;;;;;;;;;20.32;38.81;101455.08;105378;1299;61957;-83
2022/05/10 00:21:18;;;;;;;;;;;;;;;;;;;;;
2022/05/10 00:24:04;;;;;;;;;;;;;;;20.32;38.75;101459.57;105303;1299;73857;-82
2022/05/10 00:26:52;;;;;;;;;;;;;;;20.32;39.00;101463.14;105278;1297;75538;-87
2022/05/10 00:29:26;;;;;;;;;;;;;;;20.32;38.96;101461.89;105357;1298;62466;-83
2022/05/10 00:32:09;;;;;;;;;;;;;;;20.31;38.84;101456.91;105289;1299;62129;-81
2022/05/10 00:34:47;;;;;;;;;;;;;;;20.32;38.96;101461.19;105322;1299;73115;-88
2022/05/10 00:37:27;;;;;;;;;;;;;;;;;;;;;
2022/05/10 00:40:21;;;;;;;;;;;;;;;20.31;38.86;101455.30;105287;1298;62099;-82
2022/05/10 00:43:12;;;;;;;;;;;;;;;20.31;38.80;101447.80;105257;1299;62019;-85
2022/05/10 00:46:08;;;;;;;;;;;;;;;20.32;38.83;101447.23;105282;1299;71486;-86
2022/05/10 00:48:47;;;;;;;;;;;;;;;20.32;38.92;101450.45;105380;1299;76842;-86
2022/05/10 00:51:57;;;;;;;;;;;;;;;20.32;38.89;101452.77;105369;1299;61964;-84
2022/05/10 00:54:42;;;;;;;;;;;;;;;20.32;39.04;101447.95;105278;1299;61958;-85
2022/05/10 00:57:31;;;;;;;;;;;;;;;20.32;39.14;101451.34;105370;1298;74059;-83
2022/05/10 01:00:22;;;;;;;;;;;;;;;20.31;39.03;101448.69;105196;1299;75497;-83
2022/05/10 01:03:25;;;;;;;;;;;;;;;20.31;39.02;101446.36;105266;1299;63188;-81
2022/05/10 01:06:02;;;;;;;;;;;;;;;20.31;38.99;101449.77;105386;1299;62178;-82
2022/05/10 01:09:02;;;;;;;;;;;;;;;20.31;38.95;101446.70;105387;1299;72932;-86
2022/05/10 01:11:58;;;;;;;;;;;;;;;20.31;39.12;101445.12;105238;1299;78428;-81
2022/05/10 01:14:46;;;;;;;;;;;;;;;20.31;39.08;101444.39;105387;1299;62097;-85
2022/05/10 01:17:29;;;;;;;;;;;;;;;;;;;;;
2022/05/10 01:20:15;;;;;;;;;;;;;;;20.31;39.28;101437.98;105252;1300;71861;-82
2022/05/10 01:22:56;;;;;;;;;;;;;;;20.31;39.15;101436.71;105333;1298;76097;-82
2022/05/10 01:25:45;;;;;;;;;;;;;;;20.31;39.17;101436.73;105291;1299;61826;-83
2022/05/10 01:28:46;;;;;;;;;;;;;;;20.30;39.11;101431.77;105165;1299;62021;-81
2022/05/10 01:31:42;;;;;;;;;;;;;;;20.30;39.35;101436.58;104771;1305;71940;-88
2022/05/10 01:34:16;;;;;;;;;;;;;;;20.31;39.23;101435.13;104749;1305;74718;-82
2022/05/10 01:36:44;;;;;;;;;;;;;;;20.31;39.33;101433.33;104696;1305;62363;-84
2022/05/10 01:39:30;;;;;;;;;;;;;;;20.31;39.24;101433.70;104763;1305;62139;-82
2022/05/10 01:42:22;;;;;;;;;;;;;;;20.30;39.49;101430.86;104668;1305;72781;-84
2022/05/10 01:45:05;;;;;;;;;;;;;;;20.30;39.48;101428.19;104360;1313;75461;-82
2022/05/10 01:47:57;;;;;;;;;;;;;;;20.30;39.37;101425.34;104340;1313;62064;-83
2022/05/10 01:50:35;;;;;;;;;;;;;;;20.30;39.48;101422.52;104291;1313;61860;-83
2022/05/10 01:53:23;;;;;;;;;;;;;;;20.30;39.46;101422.32;104309;1313;72717;-84
2022/05/10 01:56:11;;;;;;;;;;;;;;;20.30;39.57;101423.77;104367;1313;75407;-82
2022/05/10 01:59:12;;;;;;;;;;;;;;;20.29;39.44;101424.66;104308;1313;61992;-85
2022/05/10 02:02:07;;;;;;;;;;;;;;;20.30;39.45;101423.73;104293;1313;62463;-88
2022/05/10 02:04:45;;;;;;;;;;;;;;;20.30;39.67;101426.09;104377;1306;72992;-81
2022/05/10 02:07:30;;;;;;;;;;;;;;;20.30;39.56;101428.74;104753;1305;76051;-81
2022/05/10 02:10:24;;;;;;;;;;;;;;;20.30;39.61;101427.48;104568;1305;62081;-85
2022/05/10 02:13:11;;;;;;;;;;;;;;;20.30;39.66;101426.42;104374;1311;62073;-81
2022/05/10 02:15:59;;;;;;;;;;;;;;;20.30;39.58;101423.02;104550;1306;73921;-83
2022/05/10 02:18:43;;;;;;;;;;;;;;;;;;;;;
2022/05/10 02:21:29;;;;;;;;;;;;;;;20.30;39.61;101417.83;104383;1311;62244;-83
2022/05/10 02:24:18;;;;;;;;;;;;;;;;;;;;;
2022/05/10 02:27:10;;;;;;;;;;;;;;;20.30;39.66;101413.21;104383;1311;73905;-83
2022/05/10 02:29:59;;;;;;;;;;;;;;;20.30;39.79;101413.92;104187;1316;75405;-85
2022/05/10 02:35:36;;;;;;;;;;;;;;;20.30;39.77;101416.96;104122;1316;61981;-82
2022/05/10 02:38:14;;;;;;;;;;;;;;;20.29;39.83;101416.45;104193;1316;73849;-87
2022/05/10 02:41:20;;;;;;;;;;;;;;;20.30;39.98;101418.21;104134;1316;74344;-84
2022/05/10 02:44:22;;;;;;;;;;;;;;;20.30;39.67;101419.98;104192;1316;62118;-86
2022/05/10 02:46:50;;;;;;;;;;;;;;;20.30;40.02;101422.48;103805;1319;62225;-81
2022/05/10 02:50:02;;;;;;;;;;;;;;;20.30;39.87;101420.36;103873;1316;74276;-82
2022/05/10 02:52:28;;;;;;;;;;;;;;;20.30;40.07;101422.34;104068;1316;77049;-85
2022/05/10 02:55:04;;;;;;;;;;;;;;;20.30;39.99;101422.13;104117;1311;62063;-82
2022/05/10 02:57:50;;;;;;;;;;;;;;;;;;;;;
2022/05/10 03:00:35;;;;;;;;;;;;;;;20.30;39.95;101424.48;104392;1311;73151;-83
2022/05/10 03:03:07;;;;;;;;;;;;;;;20.29;40.00;101422.71;104397;1311;74995;-82
2022/05/10 03:05:45;;;;;;;;;;;;;;;20.29;39.95;101424.65;104346;1311;62140;-83
2022/05/10 03:08:20;;;;;;;;;;;;;;;20.29;40.00;101427.53;104694;1308;61974;-83
2022/05/10 03:11:05;;;;;;;;;;;;;;;20.29;40.00;101425.94;104649;1305;72821;-82
2022/05/10 03:13:34;;;;;;;;;;;;;;;20.29;39.99;101432.37;104407;1311;75680;-82
2022/05/10 03:16:09;;;;;;;;;;;;;;;20.29;39.99;101433.80;104418;1311;62079;-85
2022/05/10 03:19:40;;;;;;;;;;;;;;;20.28;40.10;101435.81;104345;1311;60682;-84
2022/05/10 03:22:12;;;;;;;;;;;;;;;20.29;40.04;101438.29;104000;1314;73010;-81
2022/05/10 03:24:49;;;;;;;;;;;;;;;20.29;40.26;101438.46;104394;1311;76511;-82
2022/05/10 03:27:35;;;;;;;;;;;;;;;20.29;40.29;101437.89;104466;1310;61971;-81
2022/05/10 03:30:12;;;;;;;;;;;;;;;20.29;40.33;101442.55;104462;1311;62111;-85
2022/05/10 03:32:55;;;;;;;;;;;;;;;20.29;40.25;101443.81;104484;1309;73069;-85
2022/05/10 03:35:45;;;;;;;;;;;;;;;;;;;;;
2022/05/10 03:38:29;;;;;;;;;;;;;;;;;;;;;
2022/05/10 03:40:58;;;;;;;;;;;;;;;20.29;40.18;101451.16;104044;1317;62007;-84
2022/05/10 03:43:30;;;;;;;;;;;;;;;20.29;40.24;101457.75;104109;1316;72085;-83
2022/05/10 03:45:59;;;;;;;;;;;;;;;20.29;40.16;101458.30;103740;1317;74738;-82
2022/05/10 03:48:48;;;;;;;;;;;;;;;20.28;40.29;101459.77;104137;1317;62144;-82
2022/05/10 03:51:32;;;;;;;;;;;;;;;20.28;40.12;101466.93;104187;1316;62065;-83
2022/05/10 03:54:07;;;;;;;;;;;;;;;20.28;40.22;101471.74;104019;1316;72796;-83
2022/05/10 03:57:05;;;;;;;;;;;;;;;20.29;40.21;101471.38;104155;1316;75468;-83
2022/05/10 03:59:43;;;;;;;;;;;;;;;20.28;40.11;101477.66;103335;1320;62173;-83
2022/05/10 04:02:37;;;;;;;;;;;;;;;20.28;40.24;101476.23;103647;1317;62121;-82
2022/05/10 04:05:09;;;;;;;;;;;;;;;20.28;40.26;101478.55;103221;1323;73105;-83
2022/05/10 04:07:38;;;;;;;;;;;;;;;20.28;40.18;101480.33;103211;1323;75518;-81
2022/05/10 04:10:13;;;;;;;;;;;;;;;20.28;40.32;101481.08;103247;1323;62096;-82
2022/05/10 04:13:09;;;;;;;;;;;;;;;20.28;40.22;101484.47;103327;1322;62417;-83
2022/05/10 04:16:02;;;;;;;;;;;;;;;;;;;;;
2022/05/10 04:18:34;;;;;;;;;;;;;;;20.27;40.22;101483.96;102487;1326;76976;-82
2022/05/10 04:21:05;;;;;;;;;;;;;;;20.27;40.28;101486.09;102622;1325;62446;-84
2022/05/10 04:23:31;;;;;;;;;;;;;;;20.27;40.20;101488.79;102553;1325;62006;-83
2022/05/10 04:26:24;;;;;;;;;;;;;;;20.26;40.22;101491.48;102558;1326;62129;-81
2022/05/10 04:28:54;;;;;;;;;;;;;;;20.27;40.25;101488.77;102520;1326;74849;-82
2022/05/10 04:31:20;;;;;;;;;;;;;;;20.27;40.30;101488.25;102639;1324;62236;-81
2022/05/10 04:33:48;;;;;;;;;;;;;;;20.27;40.24;101486.98;102570;1326;62476;-85
2022/05/10 04:36:24;;;;;;;;;;;;;;;20.27;40.18;101493.06;102912;1323;73995;-83
2022/05/10 04:39:17;;;;;;;;;;;;;;;20.27;40.23;101488.78;102665;1322;75211;-83
2022/05/10 04:41:44;;;;;;;;;;;;;;;20.26;40.20;101493.27;102540;1323;62573;-83
2022/05/10 04:44:11;;;;;;;;;;;;;;;20.27;40.20;101495.05;102613;1323;62161;-82
2022/05/10 04:47:08;;;;;;;;;;;;;;;20.28;40.30;101500.02;102809;1321;72983;-83
2022/05/10 04:49:34;;;;;;;;;;;;;;;20.28;40.23;101495.02;102127;1331;76999;-84
2022/05/10 04:51:59;;;;;;;;;;;;;;;20.28;40.26;101498.77;102214;1325;62187;-81
2022/05/10 04:54:51;;;;;;;;;;;;;;;20.26;40.31;101496.33;102425;1325;62224;-81
2022/05/10 04:57:16;;;;;;;;;;;;;;;20.24;40.29;101495.18;101867;1329;73771;-81
2022/05/10 05:00:08;;;;;;;;;;;;;;;20.22;40.35;101494.96;101906;1329;60763;-81
2022/05/10 05:02:34;;;;;;;;;;;;;;;20.20;40.44;101494.20;101552;1330;62630;-82
2022/05/10 05:05:00;;;;;;;;;;;;;;;20.16;40.37;101491.15;101395;1332;62172;-83
2022/05/10 05:07:25;;;;;;;;;;;;;;;20.09;40.48;101489.95;101610;1331;62273;-83
2022/05/10 05:09:50;;;;;;;;;;;;;;;20.05;40.58;101492.16;101768;1335;62368;-82
2022/05/10 05:12:16;;;;;;;;;;;;;;;20.05;40.57;101487.70;101754;1334;62426;-81
2022/05/10 05:15:01;;;;;;;;;;;;;;;20.06;40.61;101487.27;101837;1333;62411;-82
2022/05/10 05:17:26;;;;;;;;;;;;;;;20.08;40.60;101489.85;101752;1332;62288;-81
2022/05/10 05:19:51;;;;;;;;;;;;;;;20.10;40.65;101491.19;102111;1329;62188;-82
2022/05/10 05:22:18;;;;;;;;;;;;;;;20.12;40.60;101489.09;101982;1329;62209;-82
2022/05/10 05:24:44;;;;;;;;;;;;;;;20.11;40.65;101488.05;102189;1323;62277;-81
2022/05/10 05:27:10;;;;;;;;;;;;;;;20.09;40.72;101489.61;102624;1323;62238;-82
2022/05/10 05:29:36;;;;;;;;;;;;;;;20.09;40.71;101488.35;102551;1323;62139;-82
2022/05/10 05:32:05;;;;;;;;;;;;;;;20.10;40.71;101488.13;102535;1323;62050;-83
2022/05/10 05:34:31;;;;;;;;;;;;;;;20.12;40.63;101493.57;102845;1317;74935;-83
2022/05/10 05:39:42;;;;;;;;;;;;;;;20.13;40.79;101496.72;103835;1311;62240;-81
2022/05/10 05:42:11;;;;;;;;;;;;;;;20.13;40.82;101502.98;103818;1311;73346;-82
2022/05/10 05:44:38;;;;;;;;;;;;;;;20.13;40.91;101501.75;103728;1311;62240;-82
2022/05/10 05:47:04;;;;;;;;;;;;;;;20.13;40.83;101502.79;103696;1311;62312;-81
2022/05/10 05:49:30;;;;;;;;;;;;;;;20.14;40.72;101502.92;103865;1311;62078;-85
2022/05/10 05:51:56;;;;;;;;;;;;;;;20.15;40.97;101504.48;103619;1311;62123;-80
2022/05/10 05:54:22;;;;;;;;;;;;;;;20.15;40.95;101504.84;103451;1311;62098;-82
2022/05/10 05:56:50;;;;;;;;;;;;;;;20.08;41.00;101510.77;103502;1311;62129;-82
2022/05/10 05:59:41;;;;;;;;;;;;;;;19.93;41.00;101513.92;103549;1311;62078;-81
2022/05/10 06:02:10;;;;;;;;;;;;;;;19.80;41.39;101509.96;102645;1319;73882;-83
2022/05/10 06:04:37;;;;;;;;;;;;;;;19.71;41.67;101509.35;102647;1320;75596;-83
2022/05/10 06:07:02;;;;;;;;;;;;;;;19.63;41.86;101511.91;102678;1322;62130;-81
2022/05/10 06:09:28;;;;;;;;;;;;;;;19.64;42.02;101508.30;103399;1308;60763;-81
2022/05/10 06:11:53;;;;;;;;;;;;;;;19.70;42.06;101512.82;104037;1308;62346;-80
2022/05/10 06:14:18;;;;;;;;;;;;;;;19.74;42.04;101512.41;103893;1307;61017;-82
2022/05/10 06:16:44;;;;;;;;;;;;;;;19.79;41.93;101510.17;103995;1308;62356;-81
2022/05/10 06:19:10;;;;;;;;;;;;;;;19.82;42.24;101510.55;104073;1308;62077;-82
2022/05/10 06:21:36;;;;;;;;;;;;;;;19.86;41.95;101514.29;104118;1306;62083;-81
2022/05/10 06:24:01;;;;;;;;;;;;;;;19.87;42.12;101517.27;103976;1307;62290;-80
2022/05/10 06:26:28;;;;;;;;;;;;;;;19.81;42.17;101514.56;104057;1305;63843;-81
2022/05/10 06:28:53;;;;;;;;;;;;;;;19.81;42.17;101512.97;104062;1305;61994;-80
2022/05/10 06:31:19;;;;;;;;;;;;;;;19.83;42.20;101516.95;103979;1308;62308;-81
2022/05/10 06:34:12;;;;;;;;;;;;;;;19.84;42.32;101522.29;104142;1307;62098;-81
2022/05/10 06:36:38;;;;;;;;;;;;;;;19.83;42.29;101523.37;103701;1313;73106;-83
2022/05/10 06:39:04;;;;;;;;;;;;;;;19.86;42.39;101527.86;103886;1308;62113;-83
2022/05/10 06:41:31;;;;;;;;;;;;;;;19.89;42.32;101524.84;104073;1305;63424;-80
2022/05/10 06:43:57;;;;;;;;;;;;;;;19.92;42.34;101527.01;104244;1305;62118;-83
2022/05/10 06:46:23;;;;;;;;;;;;;;;19.96;42.32;101526.64;104251;1305;62240;-80
2022/05/10 06:48:52;;;;;;;;;;;;;;;19.98;42.22;101523.66;104154;1305;62191;-82
2022/05/10 06:51:18;;;;;;;;;;;;;;;20.01;42.22;101522.41;103862;1308;62102;-80
2022/05/10 06:53:43;;;;;;;;;;;;;;;20.04;42.36;101521.17;103024;1305;958721;-79
2022/05/10 06:56:09;;;;;;;;;;;;;;;20.06;42.25;101522.32;103990;1305;62161;-79
2022/05/10 06:58:34;;;;;;;;;;;;;;;20.02;42.36;101523.25;103993;1305;62110;-80
2022/05/10 07:01:00;;;;;;;;;;;;;;;19.87;42.61;101526.41;103890;1305;62088;-81
2022/05/10 07:03:31;;;;;;;;;;;;;;;19.72;42.99;101527.18;103741;1305;62268;-80
2022/05/10 07:05:57;;;;;;;;;;;;;;;19.63;43.22;101535.13;103806;1305;61962;-81
2022/05/10 07:08:23;;;;;;;;;;;;;;;19.62;43.25;101531.42;103830;1305;62322;-82
2022/05/10 07:10:49;;;;;;;;;;;;;;;19.66;43.60;101527.11;103878;1305;62242;-79
2022/05/10 07:13:18;;;;;;;;;;;;;;;19.71;43.49;101529.71;103975;1300;62187;-82
2022/05/10 07:15:44;;;;;;;;;;;;;;;19.75;43.53;101526.43;105229;1298;60362;-81
2022/05/10 07:18:10;;;;;;;;;;;;;;;19.80;43.59;101529.06;104464;1297;63492;-85
2022/05/10 07:20:37;;;;;;;;;;;;;;;19.84;43.60;101529.94;104517;1299;62169;-80
2022/05/10 07:23:02;;;;;;;;;;;;;;;19.87;43.42;101527.44;104680;1299;62146;-82
2022/05/10 07:25:29;;;;;;;;;;;;;;;19.90;43.47;101528.71;104776;1299;62145;-82
2022/05/10 07:27:55;;;;;;;;;;;;;;;19.88;43.55;101529.69;104808;1299;62317;-82
2022/05/10 07:30:21;;;;;;;;;;;;;;;19.86;43.53;101527.85;104727;1299;62206;-82
2022/05/10 07:32:47;;;;;;;;;;;;;;;19.85;43.67;101525.40;104807;1299;62063;-82
2022/05/10 07:35:13;;;;;;;;;;;;;;;19.85;43.60;101529.16;104805;1296;62404;-82
2022/05/10 07:38:03;;;;;;;;;;;;;;;19.86;43.80;101531.59;104855;1297;61939;-85
2022/05/10 07:40:28;;;;;;;;;;;;;;;19.87;43.72;101535.83;104097;1305;75588;-82
2022/05/10 07:42:55;;;;;;;;;;;;;;;19.87;43.74;101537.96;103990;1305;62242;-82
2022/05/10 07:45:22;;;;;;;;;;;;;;;19.85;43.61;101541.69;103716;1305;62057;-82
2022/05/10 07:47:47;;;;;;;;;;;;;;;19.86;43.91;101539.31;103797;1305;62140;-82
2022/05/10 07:50:14;;;;;;;;;;;;;;;19.86;43.85;101544.10;103753;1304;64194;-81
2022/05/10 07:52:40;;;;;;;;;;;;;;;19.84;44.04;101547.81;103775;1305;62204;-82
2022/05/10 07:55:06;;;;;;;;;;;;;;;19.81;44.13;101548.88;103845;1305;62100;-82
2022/05/10 07:57:32;;;;;;;;;;;;;;;19.74;44.49;101548.11;103972;1305;62076;-83
2022/05/10 07:59:57;;;;;;;;;;;;;;;19.70;44.51;101551.73;103718;1305;62144;-80
2022/05/10 08:02:23;;;;;;;;;;;;;;;19.66;44.83;101550.90;103826;1305;62419;-83
2022/05/10 08:04:50;;;;;;;;;;;;;;;19.66;45.02;101553.73;103777;1304;62026;-81
2022/05/10 08:07:15;;;;;;;;;;;;;;;19.67;45.07;101551.87;103948;1305;62174;-81
2022/05/10 08:09:43;;;;;;;;;;;;;;;19.72;45.23;101553.59;104083;1305;62328;-81
2022/05/10 08:12:08;;;;;;;;;;;;;;;19.77;45.39;101553.52;104007;1305;62200;-81
2022/05/10 08:14:34;;;;;;;;;;;;;;;19.81;45.68;101552.59;103906;1308;62163;-80
2022/05/10 08:16:59;;;;;;;;;;;;;;;19.86;45.79;101555.01;104169;1299;62170;-82
2022/05/10 08:19:26;;;;;;;;;;;;;;;19.92;45.95;101558.81;104687;1298;62120;-83
2022/05/10 08:21:55;;;;;;;;;;;;;;;19.96;45.97;101557.69;104536;1299;62238;-82
2022/05/10 08:24:21;;;;;;;;;;;;;;;20.01;46.05;101556.36;106061;1299;60213;-81
2022/05/10 08:26:48;;;;;;;;;;;;;;;20.04;45.99;101557.60;106103;1297;60339;-81
2022/05/10 08:29:13;;;;;;;;;;;;;;;20.08;46.28;101556.67;104781;1299;61947;-82
2022/05/10 08:32:04;;;;;;;;;;;;;;;20.11;46.20;101558.64;104852;1298;62204;-81
2022/05/10 08:34:29;;;;;;;;;;;;;;;20.14;46.13;101557.07;104220;1305;62084;-82
2022/05/10 08:36:56;;;;;;;;;;;;;;;20.15;46.26;101554.34;104141;1305;62016;-81
2022/05/10 08:39:22;;;;;;;;;;;;;;;20.16;46.21;101554.45;104259;1304;62119;-80
2022/05/10 08:41:52;;;;;;;;;;;;;;;20.17;46.04;101556.19;104074;1306;62238;-81
2022/05/10 08:44:20;;;;;;;;;;;;;;;20.18;46.28;101556.67;104048;1305;62187;-81
2022/05/10 08:46:52;;;;;;;;;;;;;;;20.19;45.93;101560.38;104039;1305;62088;-81
2022/05/10 08:49:17;;;;;;;;;;;;;;;20.19;46.19;101553.58;104169;1305;73671;-84
2022/05/10 08:51:42;;;;;;;;;;;;;;;20.18;46.06;101554.15;103838;1303;62263;-82
2022/05/10 08:54:09;;;;;;;;;;;;;;;20.09;46.13;101555.16;103847;1305;62356;-81
2022/05/10 08:56:46;;;;;;;;;;;;;;;20.00;46.41;101556.80;103782;1305;62640;-80
2022/05/10 08:59:14;;;;;;;;;;;;;;;19.89;46.61;101553.42;105457;1303;72912;-80
2022/05/10 09:01:48;;;;;;;;;;;;;;;19.80;47.00;101556.41;103861;1305;75545;-79
2022/05/10 09:04:34;;;;;;;;;;;;;;;19.75;47.34;101558.77;103686;1305;62114;-80
2022/05/10 09:07:11;;;;;;;;;;;;;;;19.73;47.50;101557.65;103935;1305;62531;-81
2022/05/10 09:09:49;;;;;;;;;;;;;;;19.67;47.57;101557.08;103742;1305;74081;-81
2022/05/10 09:12:21;;;;;;;;;;;;;;;19.63;47.75;101560.34;105818;1298;77051;-81
2022/05/10 09:14:53;;;;;;;;;;;;;;;19.66;47.87;101564.61;105960;1298;61367;-81
2022/05/10 09:17:19;;;;;;;;;;;;;;;19.72;47.90;101564.13;106099;1297;61435;-82
2022/05/10 09:19:44;;;;;;;;;;;;;;;19.72;47.85;101562.00;106068;1297;59993;-80
2022/05/10 09:22:32;;;;;;;;;;;;;;;19.67;47.95;101559.77;106071;1297;61481;-81
2022/05/10 09:24:57;;;;;;;;;;;;;;;19.71;48.05;101561.68;106097;1297;60198;-81
2022/05/10 09:27:27;;;;;;;;;;;;;;;19.75;48.07;101564.11;105948;1298;61059;-82
2022/05/10 09:29:53;;;;;;;;;;;;;;;19.79;48.06;101560.73;105884;1297;73883;-82
2022/05/10 09:35:09;;;;;;;;;;;;;;;19.87;48.14;101557.64;106017;1297;60667;-83
2022/05/10 09:37:47;;;;;;;;;;;;;;;19.92;48.05;101563.63;106032;1297;60766;-82
2022/05/10 09:40:35;;;;;;;;;;;;;;;19.95;48.19;101560.96;106100;1297;73004;-83
2022/05/10 09:43:27;;;;;;;;;;;;;;;19.99;48.04;101559.15;106088;1296;75647;-82
2022/05/10 09:46:04;;;;;;;;;;;;;;;19.98;48.06;101560.96;106056;1298;60221;-82
2022/05/10 09:48:29;;;;;;;;;;;;;;;19.96;48.12;101562.19;104929;1297;62082;-81
2022/05/10 09:50:55;;;;;;;;;;;;;;;19.91;48.03;101563.64;104333;1299;62276;-80
2022/05/10 09:53:26;;;;;;;;;;;;;;;19.86;48.36;101566.28;104290;1299;62197;-81
2022/05/10 09:55:51;;;;;;;;;;;;;;;19.82;48.53;101565.77;104331;1297;62150;-81
2022/05/10 09:58:18;;;;;;;;;;;;;;;19.74;48.50;101565.11;104503;1297;62187;-81
2022/05/10 10:00:44;;;;;;;;;;;;;;;19.68;48.65;101561.67;104657;1297;62183;-81
2022/05/10 10:03:27;;;;;;;;;;;;;;;19.67;48.74;101566.02;106009;1298;59945;-82
2022/05/10 10:05:54;;;;;;;;;;;;;;;19.66;48.88;101563.19;105965;1297;61345;-81
2022/05/10 10:08:36;;;;;;;;;;;;;;;19.70;48.90;101560.13;105967;1297;60359;-82
2022/05/10 10:11:04;;;;;;;;;;;;;;;19.75;49.01;101560.23;105711;1297;72734;-82
2022/05/10 10:13:32;;;;;;;;;;;;;;;19.80;48.82;101558.20;104412;1296;76728;-82
2022/05/10 10:15:58;;;;;;;;;;;;;;;19.83;49.08;101556.59;104585;1296;62043;-82
2022/05/10 10:18:43;;;;;;;;;;;;;;;19.85;48.98;101550.78;104608;1297;62195;-82
2022/05/10 10:21:09;;;;;;;;;;;;;;;19.85;49.19;101552.21;104641;1297;72929;-82
2022/05/10 10:23:38;;;;;;;;;;;;;;;19.87;48.95;101551.59;104505;1297;62420;-82
2022/05/10 10:26:06;;;;;;;;;;;;;;;19.89;48.99;101551.44;106176;1297;60736;-82
2022/05/10 10:28:35;;;;;;;;;;;;;;;19.93;48.90;101551.45;106012;1297;60208;-82
2022/05/10 10:31:20;;;;;;;;;;;;;;;19.96;49.00;101552.00;106083;1297;72800;-82
2022/05/10 10:33:47;;;;;;;;;;;;;;;19.93;48.91;101549.30;106183;1297;76980;-82
2022/05/10 10:36:14;;;;;;;;;;;;;;;19.87;49.12;101547.27;106017;1297;60094;-82
2022/05/10 10:38:40;;;;;;;;;;;;;;;19.84;48.96;101548.14;105968;1297;60499;-83
2022/05/10 10:41:08;;;;;;;;;;;;;;;19.84;49.10;101544.23;106153;1297;60091;-83
2022/05/10 10:43:40;;;;;;;;;;;;;;;19.84;49.18;101544.39;106041;1297;77134;-82
2022/05/10 10:46:15;;;;;;;;;;;;;;;19.82;49.17;101542.38;106077;1297;61609;-83
2022/05/10 10:49:03;;;;;;;;;;;;;;;19.72;49.05;101544.31;105984;1296;61463;-82
2022/05/10 10:51:29;;;;;;;;;;;;;;;19.65;49.09;101540.00;105984;1295;72838;-82
2022/05/10 10:53:54;;;;;;;;;;;;;;;19.61;49.09;101536.31;105858;1297;60505;-81
2022/05/10 10:56:20;;;;;;;;;;;;;;;19.59;49.22;101535.70;105802;1299;61602;-83
2022/05/10 10:58:49;;;;;;;;;;;;;;;19.58;49.13;101531.84;106067;1296;60889;-82
2022/05/10 11:01:27;;;;;;;;;;;;;;;19.58;49.22;101530.55;106032;1297;72888;-83
2022/05/10 11:03:56;;;;;;;;;;;;;;;19.60;49.31;101528.49;105911;1297;75729;-83
2022/05/10 11:06:25;;;;;;;;;;;;;;;19.62;49.32;101521.27;106071;1296;60367;-83
2022/05/10 11:08:54;;;;;;;;;;;;;;;19.63;49.04;101517.14;106029;1297;60343;-83
2022/05/10 11:11:29;;;;;;;;;;;;;;;19.61;49.16;101511.52;106135;1296;71819;-82
2022/05/10 11:13:58;;;;;;;;;;;;;;;19.62;49.03;101512.35;105949;1297;74489;-82
2022/05/10 11:16:26;;;;;;;;;;;;;;;19.63;48.81;101510.33;106195;1297;61426;-82
2022/05/10 11:19:10;;;;;;;;;;;;;;;19.61;48.88;101513.09;106211;1297;60478;-83
2022/05/10 11:21:39;;;;;;;;;;;;;;;19.59;48.93;101508.35;105493;1296;72829;-82
2022/05/10 11:24:34;;;;;;;;;;;;;;;19.63;48.83;101504.77;104771;1297;76857;-82
2022/05/10 11:27:03;;;;;;;;;;;;;;;19.67;48.72;101501.89;104241;1303;61971;-83
2022/05/10 11:29:37;;;;;;;;;;;;;;;19.69;48.65;101499.26;104467;1303;61997;-82
2022/05/10 11:32:17;;;;;;;;;;;;;;;19.68;48.79;101495.76;104291;1304;73870;-82
2022/05/10 11:35:01;;;;;;;;;;;;;;;19.69;48.55;101494.44;104194;1305;76695;-82
2022/05/10 11:37:38;;;;;;;;;;;;;;;19.72;48.44;101490.35;104311;1305;62121;-81
2022/05/10 11:40:26;;;;;;;;;;;;;;;19.75;48.60;101490.75;104404;1303;63215;-81
2022/05/10 11:43:10;;;;;;;;;;;;;;;19.78;48.62;101483.81;103820;1311;72759;-80
2022/05/10 11:45:52;;;;;;;;;;;;;;;19.78;48.31;101484.53;103754;1311;75916;-81
2022/05/10 11:48:36;;;;;;;;;;;;;;;19.66;48.58;101476.80;103781;1311;62218;-81
2022/05/10 11:51:42;;;;;;;;;;;;;;;19.62;48.60;101472.37;103852;1311;62155;-82
2022/05/10 11:54:19;;;;;;;;;;;;;;;19.65;48.57;101473.42;103207;1316;71989;-83
2022/05/10 11:56:50;;;;;;;;;;;;;;;19.65;48.59;101465.40;102844;1317;74460;-83
2022/05/10 11:59:27;;;;;;;;;;;;;;;19.65;48.48;101456.13;103276;1316;64066;-81
2022/05/10 12:01:55;;;;;;;;;;;;;;;19.66;48.62;101448.35;103204;1317;62259;-83
2022/05/10 12:04:39;;;;;;;;;;;;;;;19.71;48.60;101454.89;103546;1313;74107;-82
2022/05/10 12:07:25;;;;;;;;;;;;;;;19.76;48.73;101448.72;103734;1311;76547;-83
2022/05/10 12:10:03;;;;;;;;;;;;;;;19.76;48.47;101442.42;103456;1311;62030;-82
2022/05/10 12:12:32;;;;;;;;;;;;;;;19.75;48.72;101437.33;103819;1310;63688;-82
2022/05/10 12:23:19;;;;;;;;;;;;;;;19.92;48.22;101422.33;104461;1303;61944;-82
2022/05/10 12:26:00;;;;;;;;;;;;;;;19.92;48.33;101422.81;104478;1302;62235;-82
2022/05/10 12:28:44;;;;;;;;;;;;;;;19.90;48.18;101420.45;104443;1303;76598;-82
2022/05/10 12:31:32;;;;;;;;;;;;;;;19.79;48.00;101414.65;104833;1297;61856;-81
2022/05/10 12:33:59;;;;;;;;;;;;;;;19.71;47.91;101412.40;104982;1297;63496;-82
2022/05/10 12:36:31;;;;;;;;;;;;;;;19.67;47.91;101408.30;105253;1297;73882;-83
2022/05/10 12:39:15;;;;;;;;;;;;;;;19.69;47.93;101403.05;105158;1297;77211;-82
2022/05/10 12:42:10;;;;;;;;;;;;;;;19.72;48.00;101401.27;105209;1299;61995;-85
2022/05/10 12:45:05;;;;;;;;;;;;;;;19.77;47.88;101398.85;104817;1300;62092;-84
2022/05/10 12:48:03;;;;;;;;;;;;;;;19.79;47.87;101395.15;105264;1297;72354;-82
2022/05/10 12:50:47;;;;;;;;;;;;;;;19.81;47.67;101390.59;104747;1303;75688;-82
2022/05/10 12:53:26;;;;;;;;;;;;;;;19.80;47.68;101386.73;104448;1303;62229;-82
2022/05/10 12:55:55;;;;;;;;;;;;;;;19.83;47.52;101379.26;104283;1305;62084;-83
2022/05/10 12:58:22;;;;;;;;;;;;;;;19.86;47.62;101373.90;104199;1303;73773;-83
2022/05/10 13:00:53;;;;;;;;;;;;;;;19.89;47.45;101373.51;104313;1303;76454;-81
2022/05/10 13:03:41;;;;;;;;;;;;;;;19.94;47.38;101370.02;104639;1305;62028;-87
2022/05/10 13:06:06;;;;;;;;;;;;;;;19.99;47.42;101364.38;104705;1303;61947;-82
2022/05/10 13:08:38;;;;;;;;;;;;;;;20.02;47.33;101361.88;104552;1303;72806;-82
2022/05/10 13:11:05;;;;;;;;;;;;;;;20.05;47.43;101357.96;104629;1303;75481;-84
2022/05/10 13:13:33;;;;;;;;;;;;;;;20.09;47.43;101359.52;104757;1303;62294;-84
2022/05/10 13:16:01;;;;;;;;;;;;;;;20.12;47.22;101355.62;104796;1305;61856;-84
2022/05/10 13:18:31;;;;;;;;;;;;;;;20.14;47.27;101352.27;104656;1303;72834;-83
2022/05/10 13:20:57;;;;;;;;;;;;;;;20.17;47.11;101354.26;104755;1303;74763;-83
2022/05/10 13:23:28;;;;;;;;;;;;;;;20.19;47.19;101350.19;104759;1305;61964;-83
2022/05/10 13:26:09;;;;;;;;;;;;;;;20.22;47.20;101348.07;104970;1297;62010;-83
2022/05/10 13:29:01;;;;;;;;;;;;;;;20.23;46.94;101342.61;105328;1297;71381;-83
2022/05/10 13:31:37;;;;;;;;;;;;;;;20.25;46.87;101339.81;105457;1297;74485;-82
2022/05/10 13:34:20;;;;;;;;;;;;;;;20.27;46.87;101341.68;105490;1296;62090;-85
2022/05/10 13:37:23;;;;;;;;;;;;;;;20.28;47.10;101340.73;105463;1296;62049;-86
2022/05/10 13:39:58;;;;;;;;;;;;;;;20.30;46.97;101336.72;104882;1305;74008;-82